sensor_id;sensor_type;location;lat;lon;timestamp;pressure;altitude;pressure_sealevel;temperature;humidity
68712;BME280;55690;51.566;19.198;2023-03-25T00:02:35;100530.02;;;14.31;87.71
68712;BME280;55690;51.566;19.198;2023-03-25T00:06:41;100530.07;;;14.51;86.43
68712;BME280;55690;51.566;19.198;2023-03-25T00:10:54;100531.99;;;14.01;87.80
68712;BME280;55690;51.566;19.198;2023-03-25T00:14:56;100541.61;;;13.85;88.64
68712;BME280;55690;51.566;19.198;2023-03-25T00:19:00;100540.49;;;14.07;87.07
68712;BME280;55690;51.566;19.198;2023-03-25T00:23:06;100541.34;;;13.98;87.79
68712;BME280;55690;51.566;19.198;2023-03-25T00:27:12;100540.64;;;14.06;87.42
68712;BME280;55690;51.566;19.198;2023-03-25T00:31:18;100527.55;;;14.09;87.11
68712;BME280;55690;51.566;19.198;2023-03-25T00:35:24;100535.98;;;13.77;88.11
68712;BME280;55690;51.566;19.198;2023-03-25T00:39:30;100540.60;;;13.96;87.85
68712;BME280;55690;51.566;19.198;2023-03-25T00:43:37;100537.91;;;14.06;87.83
68712;BME280;55690;51.566;19.198;2023-03-25T00:47:43;100526.65;;;13.80;88.00
68712;BME280;55690;51.566;19.198;2023-03-25T00:51:50;100529.34;;;13.70;87.89
68712;BME280;55690;51.566;19.198;2023-03-25T00:55:56;100530.23;;;13.90;87.15
68712;BME280;55690;51.566;19.198;2023-03-25T01:00:05;100531.41;;;13.97;87.11
68712;BME280;55690;51.566;19.198;2023-03-25T01:04:08;100535.25;;;13.75;87.56
68712;BME280;55690;51.566;19.198;2023-03-25T01:08:13;100538.84;;;13.45;88.37
68712;BME280;55690;51.566;19.198;2023-03-25T01:12:20;100530.67;;;13.45;88.03
68712;BME280;55690;51.566;19.198;2023-03-25T01:16:26;100540.05;;;13.22;88.47
68712;BME280;55690;51.566;19.198;2023-03-25T01:20:32;100544.34;;;13.04;89.15
68712;BME280;55690;51.566;19.198;2023-03-25T01:24:38;100535.23;;;13.14;87.92
68712;BME280;55690;51.566;19.198;2023-03-25T01:28:44;100515.79;;;12.98;88.70
68712;BME280;55690;51.566;19.198;2023-03-25T01:32:51;100516.82;;;13.07;88.68
68712;BME280;55690;51.566;19.198;2023-03-25T01:36:57;100532.94;;;12.89;88.97
68712;BME280;55690;51.566;19.198;2023-03-25T01:41:04;100518.91;;;12.93;88.31
68712;BME280;55690;51.566;19.198;2023-03-25T01:49:23;100521.90;;;12.90;88.16
68712;BME280;55690;51.566;19.198;2023-03-25T01:53:31;100532.79;;;12.49;89.51
68712;BME280;55690;51.566;19.198;2023-03-25T01:57:33;100541.44;;;12.54;88.64
68712;BME280;55690;51.566;19.198;2023-03-25T02:01:36;100534.52;;;12.50;89.13
68712;BME280;55690;51.566;19.198;2023-03-25T02:09:54;100535.51;;;12.70;88.36
68712;BME280;55690;51.566;19.198;2023-03-25T02:14:02;100524.69;;;12.79;87.97
68712;BME280;55690;51.566;19.198;2023-03-25T02:22:32;100531.40;;;12.75;87.11
68712;BME280;55690;51.566;19.198;2023-03-25T02:47:54;100504.75;;;12.79;86.92
68712;BME280;55690;51.566;19.198;2023-03-25T02:56:16;100506.41;;;12.70;86.68
68712;BME280;55690;51.566;19.198;2023-03-25T03:00:23;100504.17;;;12.22;88.40
68712;BME280;55690;51.566;19.198;2023-03-25T03:04:28;100506.73;;;12.03;89.25
68712;BME280;55690;51.566;19.198;2023-03-25T03:21:17;100509.96;;;11.97;89.16
68712;BME280;55690;51.566;19.198;2023-03-25T03:26:11;100518.99;;;11.97;89.23
68712;BME280;55690;51.566;19.198;2023-03-25T03:29:44;100511.81;;;11.96;88.86
68712;BME280;55690;51.566;19.198;2023-03-25T03:33:52;100517.90;;;11.89;89.10
68712;BME280;55690;51.566;19.198;2023-03-25T03:38:00;100510.73;;;11.88;88.87
68712;BME280;55690;51.566;19.198;2023-03-25T03:42:14;100522.61;;;11.87;89.19
68712;BME280;55690;51.566;19.198;2023-03-25T03:46:27;100517.40;;;11.95;88.73
68712;BME280;55690;51.566;19.198;2023-03-25T03:50:35;100515.41;;;11.75;89.45
68712;BME280;55690;51.566;19.198;2023-03-25T03:54:47;100526.55;;;11.94;89.00
68712;BME280;55690;51.566;19.198;2023-03-25T03:58:53;100518.99;;;11.97;88.24
68712;BME280;55690;51.566;19.198;2023-03-25T04:07:18;100506.52;;;11.84;87.83
68712;BME280;55690;51.566;19.198;2023-03-25T04:11:26;100514.30;;;11.88;87.80
68712;BME280;55690;51.566;19.198;2023-03-25T04:15:29;100534.81;;;12.04;86.79
68712;BME280;55690;51.566;19.198;2023-03-25T04:19:30;100550.56;;;11.78;88.19
68712;BME280;55690;51.566;19.198;2023-03-25T04:23:35;100546.85;;;11.68;88.45
68712;BME280;55690;51.566;19.198;2023-03-25T04:27:41;100551.67;;;11.42;89.08
68712;BME280;55690;51.566;19.198;2023-03-25T04:31:48;100553.28;;;11.44;90.17
68712;BME280;55690;51.566;19.198;2023-03-25T04:35:50;100542.65;;;11.41;89.95
68712;BME280;55690;51.566;19.198;2023-03-25T04:39:52;100544.38;;;11.53;89.97
68712;BME280;55690;51.566;19.198;2023-03-25T04:43:59;100542.28;;;11.46;89.70
68712;BME280;55690;51.566;19.198;2023-03-25T04:48:01;100541.90;;;11.28;89.95
68712;BME280;55690;51.566;19.198;2023-03-25T04:52:05;100552.91;;;11.15;89.45
68712;BME280;55690;51.566;19.198;2023-03-25T04:56:12;100544.47;;;10.96;89.68
68712;BME280;55690;51.566;19.198;2023-03-25T05:00:19;100553.33;;;10.87;92.69
68712;BME280;55690;51.566;19.198;2023-03-25T05:04:21;100560.20;;;11.15;89.00
68712;BME280;55690;51.566;19.198;2023-03-25T05:08:24;100561.27;;;11.01;91.31
68712;BME280;55690;51.566;19.198;2023-03-25T05:12:26;100561.37;;;10.88;93.66
68712;BME280;55690;51.566;19.198;2023-03-25T05:16:28;100555.73;;;11.03;93.51
68712;BME280;55690;51.566;19.198;2023-03-25T05:20:29;100563.01;;;11.02;93.38
68712;BME280;55690;51.566;19.198;2023-03-25T05:24:34;100557.48;;;11.15;92.96
68712;BME280;55690;51.566;19.198;2023-03-25T05:28:38;100556.61;;;11.14;92.57
68712;BME280;55690;51.566;19.198;2023-03-25T05:32:39;100548.96;;;11.19;92.32
68712;BME280;55690;51.566;19.198;2023-03-25T05:36:41;100555.48;;;11.28;91.93
68712;BME280;55690;51.566;19.198;2023-03-25T05:40:47;100562.55;;;11.42;92.87
68712;BME280;55690;51.566;19.198;2023-03-25T05:44:50;100568.00;;;11.64;91.73
68712;BME280;55690;51.566;19.198;2023-03-25T05:48:52;100557.09;;;11.97;90.76
68712;BME280;55690;51.566;19.198;2023-03-25T05:52:54;100558.80;;;12.10;90.49
68712;BME280;55690;51.566;19.198;2023-03-25T05:56:57;100557.94;;;12.09;91.29
68712;BME280;55690;51.566;19.198;2023-03-25T06:00:58;100560.09;;;12.26;91.50
68712;BME280;55690;51.566;19.198;2023-03-25T06:05:10;100561.93;;;11.94;93.76
68712;BME280;55690;51.566;19.198;2023-03-25T06:09:15;100549.45;;;12.23;92.67
68712;BME280;55690;51.566;19.198;2023-03-25T06:13:19;100555.91;;;12.54;91.82
68712;BME280;55690;51.566;19.198;2023-03-25T06:17:21;100565.98;;;12.43;92.04
68712;BME280;55690;51.566;19.198;2023-03-25T06:21:23;100564.87;;;12.45;92.72
68712;BME280;55690;51.566;19.198;2023-03-25T06:25:26;100565.75;;;12.66;92.50
68712;BME280;55690;51.566;19.198;2023-03-25T06:29:30;100555.36;;;12.40;93.41
68712;BME280;55690;51.566;19.198;2023-03-25T06:33:32;100558.33;;;12.89;91.22
68712;BME280;55690;51.566;19.198;2023-03-25T06:37:34;100562.85;;;13.21;91.26
68712;BME280;55690;51.566;19.198;2023-03-25T06:41:36;100569.77;;;13.55;90.24
68712;BME280;55690;51.566;19.198;2023-03-25T06:45:38;100570.04;;;13.22;89.77
68712;BME280;55690;51.566;19.198;2023-03-25T06:49:40;100574.95;;;13.58;89.53
68712;BME280;55690;51.566;19.198;2023-03-25T06:53:41;100579.49;;;13.48;89.54
68712;BME280;55690;51.566;19.198;2023-03-25T06:57:43;100574.04;;;13.79;88.39
68712;BME280;55690;51.566;19.198;2023-03-25T07:01:44;100562.36;;;14.17;87.18
68712;BME280;55690;51.566;19.198;2023-03-25T07:05:49;100571.30;;;14.38;87.78
68712;BME280;55690;51.566;19.198;2023-03-25T07:09:51;100563.41;;;15.03;84.74
68712;BME280;55690;51.566;19.198;2023-03-25T07:13:55;100550.91;;;15.84;82.15
68712;BME280;55690;51.566;19.198;2023-03-25T07:17:57;100557.30;;;16.65;80.41
68712;BME280;55690;51.566;19.198;2023-03-25T07:21:58;100546.52;;;16.18;77.90
68712;BME280;55690;51.566;19.198;2023-03-25T07:26:00;100548.37;;;16.81;76.85
68712;BME280;55690;51.566;19.198;2023-03-25T07:30:04;100545.55;;;16.73;78.78
68712;BME280;55690;51.566;19.198;2023-03-25T07:34:06;100538.88;;;16.40;77.26
68712;BME280;55690;51.566;19.198;2023-03-25T07:38:09;100533.18;;;17.12;77.02
68712;BME280;55690;51.566;19.198;2023-03-25T07:42:10;100538.94;;;17.27;75.86
68712;BME280;55690;51.566;19.198;2023-03-25T07:46:13;100542.62;;;16.56;75.16
68712;BME280;55690;51.566;19.198;2023-03-25T07:50:21;100542.73;;;16.65;76.25
68712;BME280;55690;51.566;19.198;2023-03-25T07:54:25;100540.29;;;17.23;75.43
68712;BME280;55690;51.566;19.198;2023-03-25T07:58:31;100539.72;;;17.45;74.02
68712;BME280;55690;51.566;19.198;2023-03-25T08:02:37;100534.73;;;17.67;74.61
68712;BME280;55690;51.566;19.198;2023-03-25T08:06:43;100535.11;;;17.72;71.27
68712;BME280;55690;51.566;19.198;2023-03-25T08:10:50;100544.68;;;17.42;72.52
68712;BME280;55690;51.566;19.198;2023-03-25T08:14:56;100536.51;;;17.84;74.13
68712;BME280;55690;51.566;19.198;2023-03-25T08:19:02;100535.48;;;17.85;72.87
68712;BME280;55690;51.566;19.198;2023-03-25T08:23:08;100542.28;;;18.07;71.63
68712;BME280;55690;51.566;19.198;2023-03-25T08:27:14;100537.41;;;17.58;72.99
68712;BME280;55690;51.566;19.198;2023-03-25T08:31:20;100540.51;;;17.29;72.63
68712;BME280;55690;51.566;19.198;2023-03-25T08:35:26;100531.91;;;17.58;73.13
68712;BME280;55690;51.566;19.198;2023-03-25T08:39:33;100508.72;;;17.87;73.16
68712;BME280;55690;51.566;19.198;2023-03-25T08:43:41;100511.05;;;18.16;71.40
68712;BME280;55690;51.566;19.198;2023-03-25T08:47:45;100502.70;;;18.50;71.33
68712;BME280;55690;51.566;19.198;2023-03-25T08:51:51;100497.89;;;19.01;70.93
68712;BME280;55690;51.566;19.198;2023-03-25T08:55:58;100495.75;;;19.35;69.82
68712;BME280;55690;51.566;19.198;2023-03-25T09:00:05;100481.00;;;20.06;67.89
68712;BME280;55690;51.566;19.198;2023-03-25T09:04:15;100484.70;;;20.21;67.50
68712;BME280;55690;51.566;19.198;2023-03-25T09:08:16;100476.99;;;20.17;66.42
68712;BME280;55690;51.566;19.198;2023-03-25T09:12:22;100483.36;;;20.17;65.52
68712;BME280;55690;51.566;19.198;2023-03-25T09:16:31;100475.60;;;19.90;65.76
68712;BME280;55690;51.566;19.198;2023-03-25T09:20:34;100478.08;;;19.77;67.44
68712;BME280;55690;51.566;19.198;2023-03-25T09:24:40;100481.00;;;19.12;67.75
68712;BME280;55690;51.566;19.198;2023-03-25T09:28:46;100492.75;;;18.89;67.76
68712;BME280;55690;51.566;19.198;2023-03-25T09:32:53;100508.55;;;18.63;69.01
68712;BME280;55690;51.566;19.198;2023-03-25T09:36:59;100501.70;;;17.92;68.64
68712;BME280;55690;51.566;19.198;2023-03-25T09:45:29;100516.72;;;18.14;68.91
68712;BME280;55690;51.566;19.198;2023-03-25T09:49:38;100500.53;;;18.03;69.25
68712;BME280;55690;51.566;19.198;2023-03-25T09:53:53;100512.92;;;18.07;68.50
68712;BME280;55690;51.566;19.198;2023-03-25T10:02:22;100487.15;;;18.08;68.13
68712;BME280;55690;51.566;19.198;2023-03-25T10:06:24;100488.88;;;18.09;67.59
68712;BME280;55690;51.566;19.198;2023-03-25T10:23:16;100484.39;;;18.00;68.28
68712;BME280;55690;51.566;19.198;2023-03-25T10:38:40;100503.53;;;17.16;73.17
68712;BME280;55690;51.566;19.198;2023-03-25T10:42:52;100500.04;;;17.06;72.79
68712;BME280;55690;51.566;19.198;2023-03-25T10:47:04;100495.48;;;17.48;73.16
68712;BME280;55690;51.566;19.198;2023-03-25T10:51:12;100493.05;;;17.71;73.06
68712;BME280;55690;51.566;19.198;2023-03-25T10:55:22;100486.37;;;17.82;72.06
68712;BME280;55690;51.566;19.198;2023-03-25T11:03:36;100477.00;;;18.01;71.58
68712;BME280;55690;51.566;19.198;2023-03-25T11:11:53;100478.86;;;17.92;71.93
68712;BME280;55690;51.566;19.198;2023-03-25T11:15:57;100481.45;;;17.93;70.78
68712;BME280;55690;51.566;19.198;2023-03-25T11:20:05;100467.20;;;17.98;71.75
68712;BME280;55690;51.566;19.198;2023-03-25T11:24:14;100463.48;;;18.32;72.35
68712;BME280;55690;51.566;19.198;2023-03-25T11:28:23;100444.22;;;18.23;70.66
68712;BME280;55690;51.566;19.198;2023-03-25T11:32:35;100442.54;;;18.47;69.84
68712;BME280;55690;51.566;19.198;2023-03-25T11:36:39;100438.41;;;18.35;69.44
68712;BME280;55690;51.566;19.198;2023-03-25T11:40:50;100435.98;;;18.32;68.64
68712;BME280;55690;51.566;19.198;2023-03-25T11:44:55;100419.49;;;18.32;68.62
68712;BME280;55690;51.566;19.198;2023-03-25T11:49:08;100413.55;;;19.16;69.51
68712;BME280;55690;51.566;19.198;2023-03-25T11:53:15;100416.11;;;18.62;68.45
68712;BME280;55690;51.566;19.198;2023-03-25T11:57:21;100402.87;;;19.21;69.17
68712;BME280;55690;51.566;19.198;2023-03-25T12:01:27;100415.35;;;18.92;68.62
68712;BME280;55690;51.566;19.198;2023-03-25T12:05:30;100412.92;;;19.06;69.00
68712;BME280;55690;51.566;19.198;2023-03-25T12:09:32;100406.16;;;19.16;68.76
68712;BME280;55690;51.566;19.198;2023-03-25T12:18:02;100381.63;;;18.99;67.36
68712;BME280;55690;51.566;19.198;2023-03-25T12:26:31;100378.28;;;19.19;66.19
68712;BME280;55690;51.566;19.198;2023-03-25T12:30:44;100371.11;;;19.49;64.83
68712;BME280;55690;51.566;19.198;2023-03-25T12:34:58;100366.67;;;19.40;63.77
68712;BME280;55690;51.566;19.198;2023-03-25T12:47:52;100375.67;;;19.26;64.43
68712;BME280;55690;51.566;19.198;2023-03-25T12:51:55;100377.77;;;19.16;64.64
68712;BME280;55690;51.566;19.198;2023-03-25T13:00:25;100402.76;;;17.34;69.54
68712;BME280;55690;51.566;19.198;2023-03-25T13:04:42;100400.71;;;17.28;71.12
68712;BME280;55690;51.566;19.198;2023-03-25T13:08:52;100390.02;;;17.17;71.05
68712;BME280;55690;51.566;19.198;2023-03-25T13:12:58;100393.13;;;17.22;71.66
68712;BME280;55690;51.566;19.198;2023-03-25T13:17:07;100388.12;;;17.59;69.77
68712;BME280;55690;51.566;19.198;2023-03-25T13:21:22;100381.79;;;17.17;68.85
68712;BME280;55690;51.566;19.198;2023-03-25T13:38:32;100367.45;;;18.06;70.29
68712;BME280;55690;51.566;19.198;2023-03-25T13:46:35;100356.10;;;17.92;69.48
68712;BME280;55690;51.566;19.198;2023-03-25T13:50:38;100358.94;;;17.58;69.48
68712;BME280;55690;51.566;19.198;2023-03-25T13:54:53;100365.95;;;17.53;69.60
68712;BME280;55690;51.566;19.198;2023-03-25T14:11:48;100358.64;;;17.19;74.83
68712;BME280;55690;51.566;19.198;2023-03-25T14:16:01;100340.16;;;16.87;74.39
68712;BME280;55690;51.566;19.198;2023-03-25T14:20:07;100339.52;;;17.02;72.38
68712;BME280;55690;51.566;19.198;2023-03-25T14:24:19;100344.80;;;17.29;71.09
68712;BME280;55690;51.566;19.198;2023-03-25T14:28:34;100334.52;;;17.31;71.61
68712;BME280;55690;51.566;19.198;2023-03-25T14:32:39;100344.52;;;17.56;71.80
68712;BME280;55690;51.566;19.198;2023-03-25T14:40:52;100340.02;;;17.47;71.21
68712;BME280;55690;51.566;19.198;2023-03-25T14:49:21;100337.66;;;17.60;71.58
68712;BME280;55690;51.566;19.198;2023-03-25T14:53:28;100343.73;;;17.72;71.64
68712;BME280;55690;51.566;19.198;2023-03-25T14:57:39;100347.21;;;17.32;72.40
68712;BME280;55690;51.566;19.198;2023-03-25T15:01:44;100349.51;;;17.61;72.36
68712;BME280;55690;51.566;19.198;2023-03-25T15:05:53;100360.78;;;17.00;74.24
68712;BME280;55690;51.566;19.198;2023-03-25T15:09:57;100355.08;;;16.93;75.60
68712;BME280;55690;51.566;19.198;2023-03-25T15:14:05;100350.25;;;17.21;77.05
68712;BME280;55690;51.566;19.198;2023-03-25T15:18:09;100354.63;;;17.06;78.83
68712;BME280;55690;51.566;19.198;2023-03-25T15:22:19;100365.98;;;16.77;79.60
68712;BME280;55690;51.566;19.198;2023-03-25T15:26:36;100398.29;;;16.65;81.98
68712;BME280;55690;51.566;19.198;2023-03-25T15:35:04;100372.20;;;16.17;82.05
68712;BME280;55690;51.566;19.198;2023-03-25T15:47:47;100372.05;;;16.88;80.59
68712;BME280;55690;51.566;19.198;2023-03-25T15:52:02;100380.04;;;15.77;83.77
68712;BME280;55690;51.566;19.198;2023-03-25T15:56:13;100380.51;;;15.72;83.00
68712;BME280;55690;51.566;19.198;2023-03-25T16:00:23;100376.11;;;15.61;81.66
68712;BME280;55690;51.566;19.198;2023-03-25T16:08:43;100382.25;;;15.91;79.44
68712;BME280;55690;51.566;19.198;2023-03-25T16:12:48;100380.91;;;15.59;81.32
68712;BME280;55690;51.566;19.198;2023-03-25T16:16:53;100377.44;;;15.30;79.77
68712;BME280;55690;51.566;19.198;2023-03-25T16:20:59;100369.10;;;15.04;77.58
68712;BME280;55690;51.566;19.198;2023-03-25T16:25:04;100377.73;;;14.72;78.10
68712;BME280;55690;51.566;19.198;2023-03-25T16:29:18;100385.28;;;14.88;78.31
68712;BME280;55690;51.566;19.198;2023-03-25T16:33:27;100399.09;;;14.86;78.01
68712;BME280;55690;51.566;19.198;2023-03-25T16:37:29;100403.83;;;14.94;77.26
68712;BME280;55690;51.566;19.198;2023-03-25T16:41:35;100407.09;;;15.07;76.66
68712;BME280;55690;51.566;19.198;2023-03-25T16:45:37;100411.03;;;14.85;76.25
68712;BME280;55690;51.566;19.198;2023-03-25T16:49:39;100426.67;;;14.56;76.01
68712;BME280;55690;51.566;19.198;2023-03-25T16:53:43;100428.83;;;14.52;75.82
68712;BME280;55690;51.566;19.198;2023-03-25T16:57:49;100432.57;;;14.51;75.19
68712;BME280;55690;51.566;19.198;2023-03-25T17:01:54;100433.00;;;14.47;74.87
68712;BME280;55690;51.566;19.198;2023-03-25T17:06:01;100440.59;;;14.33;75.48
68712;BME280;55690;51.566;19.198;2023-03-25T17:18:33;100448.53;;;14.17;75.83
68712;BME280;55690;51.566;19.198;2023-03-25T17:22:37;100453.41;;;14.04;76.99
68712;BME280;55690;51.566;19.198;2023-03-25T17:30:51;100465.19;;;13.85;77.23
68712;BME280;55690;51.566;19.198;2023-03-25T17:35:04;100455.13;;;13.86;76.82
68712;BME280;55690;51.566;19.198;2023-03-25T17:43:21;100465.84;;;13.58;77.28
68712;BME280;55690;51.566;19.198;2023-03-25T17:47:24;100466.20;;;13.44;78.75
68712;BME280;55690;51.566;19.198;2023-03-25T17:51:28;100470.00;;;13.62;77.54
68712;BME280;55690;51.566;19.198;2023-03-25T17:55:31;100464.32;;;13.85;76.67
68712;BME280;55690;51.566;19.198;2023-03-25T17:59:32;100468.32;;;13.90;77.21
68712;BME280;55690;51.566;19.198;2023-03-25T18:03:33;100463.44;;;13.75;76.16
68712;BME280;55690;51.566;19.198;2023-03-25T18:07:36;100471.84;;;13.52;77.12
68712;BME280;55690;51.566;19.198;2023-03-25T18:11:37;100467.11;;;13.54;76.39
68712;BME280;55690;51.566;19.198;2023-03-25T18:15:39;100470.78;;;13.34;76.61
68712;BME280;55690;51.566;19.198;2023-03-25T18:19:40;100484.02;;;13.39;76.15
68712;BME280;55690;51.566;19.198;2023-03-25T18:23:42;100478.92;;;13.24;76.70
68712;BME280;55690;51.566;19.198;2023-03-25T18:27:49;100484.96;;;13.07;77.71
68712;BME280;55690;51.566;19.198;2023-03-25T18:31:53;100488.73;;;12.85;77.94
68712;BME280;55690;51.566;19.198;2023-03-25T18:35:55;100490.46;;;12.65;77.77
68712;BME280;55690;51.566;19.198;2023-03-25T18:39:59;100486.27;;;12.82;77.07
68712;BME280;55690;51.566;19.198;2023-03-25T18:44:01;100479.50;;;12.77;77.54
68712;BME280;55690;51.566;19.198;2023-03-25T18:48:03;100481.96;;;12.59;77.94
68712;BME280;55690;51.566;19.198;2023-03-25T18:52:04;100479.90;;;12.72;77.68
68712;BME280;55690;51.566;19.198;2023-03-25T18:56:07;100483.16;;;12.45;78.53
68712;BME280;55690;51.566;19.198;2023-03-25T19:00:20;100478.05;;;12.52;78.04
68712;BME280;55690;51.566;19.198;2023-03-25T19:04:23;100467.54;;;12.68;77.88
68712;BME280;55690;51.566;19.198;2023-03-25T19:08:26;100473.77;;;12.59;78.25
68712;BME280;55690;51.566;19.198;2023-03-25T19:12:28;100476.97;;;12.64;77.90
68712;BME280;55690;51.566;19.198;2023-03-25T19:16:30;100476.07;;;12.54;77.88
68712;BME280;55690;51.566;19.198;2023-03-25T19:20:35;100474.60;;;12.50;77.83
68712;BME280;55690;51.566;19.198;2023-03-25T19:24:37;100476.43;;;12.28;77.60
68712;BME280;55690;51.566;19.198;2023-03-25T19:28:39;100475.56;;;12.28;77.99
68712;BME280;55690;51.566;19.198;2023-03-25T19:32:42;100474.63;;;12.18;78.42
68712;BME280;55690;51.566;19.198;2023-03-25T19:36:44;100468.66;;;11.92;78.20
68712;BME280;55690;51.566;19.198;2023-03-25T19:40:47;100470.91;;;11.87;78.60
68712;BME280;55690;51.566;19.198;2023-03-25T19:44:48;100470.41;;;11.93;78.43
68712;BME280;55690;51.566;19.198;2023-03-25T19:48:50;100478.75;;;12.12;78.29
68712;BME280;55690;51.566;19.198;2023-03-25T19:52:54;100474.52;;;12.40;77.58
68712;BME280;55690;51.566;19.198;2023-03-25T19:56:55;100468.82;;;12.43;77.37
68712;BME280;55690;51.566;19.198;2023-03-25T20:00:57;100475.94;;;12.55;77.38
68712;BME280;55690;51.566;19.198;2023-03-25T20:04:59;100471.91;;;12.59;77.26
68712;BME280;55690;51.566;19.198;2023-03-25T20:09:02;100460.16;;;12.59;77.15
68712;BME280;55690;51.566;19.198;2023-03-25T20:13:05;100470.88;;;12.51;77.19
68712;BME280;55690;51.566;19.198;2023-03-25T20:17:07;100472.84;;;12.28;77.32
68712;BME280;55690;51.566;19.198;2023-03-25T20:21:09;100471.20;;;12.37;77.49
68712;BME280;55690;51.566;19.198;2023-03-25T20:25:13;100472.70;;;12.09;77.70
68712;BME280;55690;51.566;19.198;2023-03-25T20:29:14;100473.09;;;12.04;78.42
68712;BME280;55690;51.566;19.198;2023-03-25T20:33:19;100474.68;;;12.07;78.33
68712;BME280;55690;51.566;19.198;2023-03-25T20:37:21;100466.53;;;12.27;77.46
68712;BME280;55690;51.566;19.198;2023-03-25T20:41:22;100469.38;;;12.26;78.06
68712;BME280;55690;51.566;19.198;2023-03-25T20:45:24;100474.96;;;12.24;77.41
68712;BME280;55690;51.566;19.198;2023-03-25T20:49:30;100457.97;;;12.32;77.53
68712;BME280;55690;51.566;19.198;2023-03-25T20:53:32;100457.05;;;12.43;76.91
68712;BME280;55690;51.566;19.198;2023-03-25T20:57:34;100453.65;;;12.29;77.15
68712;BME280;55690;51.566;19.198;2023-03-25T21:01:36;100431.48;;;11.81;77.48
68712;BME280;55690;51.566;19.198;2023-03-25T21:05:41;100460.88;;;12.19;77.57
68712;BME280;55690;51.566;19.198;2023-03-25T21:09:45;100482.66;;;12.19;78.33
68712;BME280;55690;51.566;19.198;2023-03-25T21:13:48;100473.13;;;12.46;78.28
68712;BME280;55690;51.566;19.198;2023-03-25T21:17:55;100465.96;;;12.45;76.74
68712;BME280;55690;51.566;19.198;2023-03-25T21:21:57;100469.06;;;12.61;76.15
68712;BME280;55690;51.566;19.198;2023-03-25T21:26:00;100463.76;;;12.39;76.96
68712;BME280;55690;51.566;19.198;2023-03-25T21:30:04;100465.80;;;12.25;76.83
68712;BME280;55690;51.566;19.198;2023-03-25T21:34:07;100460.01;;;12.19;77.24
68712;BME280;55690;51.566;19.198;2023-03-25T21:38:08;100471.94;;;12.39;77.30
68712;BME280;55690;51.566;19.198;2023-03-25T21:42:11;100475.55;;;12.07;78.30
68712;BME280;55690;51.566;19.198;2023-03-25T21:46:12;100470.80;;;12.41;77.11
68712;BME280;55690;51.566;19.198;2023-03-25T21:50:15;100457.27;;;12.51;76.30
68712;BME280;55690;51.566;19.198;2023-03-25T21:54:17;100469.94;;;12.41;76.61
68712;BME280;55690;51.566;19.198;2023-03-25T21:58:21;100465.96;;;12.45;76.17
68712;BME280;55690;51.566;19.198;2023-03-25T22:02:23;100472.06;;;12.37;76.77
68712;BME280;55690;51.566;19.198;2023-03-25T22:06:28;100472.02;;;12.16;77.30
68712;BME280;55690;51.566;19.198;2023-03-25T22:10:30;100473.22;;;12.03;77.09
68712;BME280;55690;51.566;19.198;2023-03-25T22:14:32;100474.84;;;11.94;77.90
68712;BME280;55690;51.566;19.198;2023-03-25T22:18:35;100464.28;;;12.12;77.58
68712;BME280;55690;51.566;19.198;2023-03-25T22:22:41;100467.26;;;12.09;77.80
68712;BME280;55690;51.566;19.198;2023-03-25T22:26:43;100475.48;;;12.18;77.31
68712;BME280;55690;51.566;19.198;2023-03-25T22:30:45;100479.17;;;11.96;77.86
68712;BME280;55690;51.566;19.198;2023-03-25T22:34:54;100473.38;;;11.90;78.17
68712;BME280;55690;51.566;19.198;2023-03-25T22:38:59;100471.54;;;11.79;78.34
68712;BME280;55690;51.566;19.198;2023-03-25T22:43:04;100468.98;;;11.55;79.03
68712;BME280;55690;51.566;19.198;2023-03-25T22:47:10;100472.27;;;11.81;78.35
68712;BME280;55690;51.566;19.198;2023-03-25T22:51:18;100471.55;;;11.68;78.91
68712;BME280;55690;51.566;19.198;2023-03-25T22:55:22;100477.25;;;11.65;79.03
68712;BME280;55690;51.566;19.198;2023-03-25T22:59:28;100474.98;;;11.70;79.14
68712;BME280;55690;51.566;19.198;2023-03-25T23:03:35;100485.62;;;11.73;79.08
68712;BME280;55690;51.566;19.198;2023-03-25T23:07:41;100488.52;;;11.38;80.27
68712;BME280;55690;51.566;19.198;2023-03-25T23:11:47;100496.68;;;11.38;80.61
68712;BME280;55690;51.566;19.198;2023-03-25T23:15:58;100495.56;;;11.29;81.00
68712;BME280;55690;51.566;19.198;2023-03-25T23:20:00;100492.23;;;11.48;80.89
68712;BME280;55690;51.566;19.198;2023-03-25T23:24:06;100489.88;;;11.32;80.90
68712;BME280;55690;51.566;19.198;2023-03-25T23:28:12;100493.21;;;11.58;80.92
68712;BME280;55690;51.566;19.198;2023-03-25T23:32:18;100483.02;;;11.72;80.71
68712;BME280;55690;51.566;19.198;2023-03-25T23:36:26;100481.04;;;11.74;80.58
68712;BME280;55690;51.566;19.198;2023-03-25T23:40:30;100476.83;;;11.92;79.53
68712;BME280;55690;51.566;19.198;2023-03-25T23:44:37;100477.53;;;12.05;79.43
68712;BME280;55690;51.566;19.198;2023-03-25T23:48:44;100475.60;;;11.74;80.30
68712;BME280;55690;51.566;19.198;2023-03-25T23:52:49;100483.69;;;11.64;81.37
68712;BME280;55690;51.566;19.198;2023-03-25T23:56:56;100481.78;;;11.87;80.34
